sensor_id;sensor_type;location;lat;lon;timestamp;pressure;altitude;pressure_sealevel;temperature;humidity
51053;BME280;37093;37.716;-122.060;2022-09-12T00:01:17;99899.93;;;30.86;16.85
51053;BME280;37093;37.716;-122.060;2022-09-12T00:03:46;99898.59;;;31.03;16.95
51053;BME280;37093;37.716;-122.060;2022-09-12T00:06:17;99894.30;;;31.53;16.82
51053;BME280;37093;37.716;-122.060;2022-09-12T00:08:45;99896.67;;;31.28;17.04
51053;BME280;37093;37.716;-122.060;2022-09-12T00:11:15;99896.07;;;30.99;18.19
51053;BME280;37093;37.716;-122.060;2022-09-12T00:13:43;99895.51;;;31.09;18.57
51053;BME280;37093;37.716;-122.060;2022-09-12T00:16:16;99891.31;;;31.09;18.10
51053;BME280;37093;37.716;-122.060;2022-09-12T00:18:46;99892.36;;;31.05;18.43
51053;BME280;37093;37.716;-122.060;2022-09-12T00:21:16;99892.51;;;31.55;18.02
51053;BME280;37093;37.716;-122.060;2022-09-12T00:23:45;99895.28;;;31.25;17.85
51053;BME280;37093;37.716;-122.060;2022-09-12T00:26:15;99898.08;;;31.04;18.25
51053;BME280;37093;37.716;-122.060;2022-09-12T00:28:44;99898.37;;;31.20;18.33
51053;BME280;37093;37.716;-122.060;2022-09-12T00:31:16;99898.70;;;31.20;17.83
51053;BME280;37093;37.716;-122.060;2022-09-12T00:33:45;99899.67;;;31.38;17.89
51053;BME280;37093;37.716;-122.060;2022-09-12T00:36:15;99899.71;;;31.37;17.66
51053;BME280;37093;37.716;-122.060;2022-09-12T00:38:44;99898.59;;;31.56;17.71
51053;BME280;37093;37.716;-122.060;2022-09-12T00:41:17;99903.12;;;31.07;18.01
51053;BME280;37093;37.716;-122.060;2022-09-12T00:43:47;99902.09;;;31.31;17.46
51053;BME280;37093;37.716;-122.060;2022-09-12T00:46:27;99900.99;;;31.18;17.78
51053;BME280;37093;37.716;-122.060;2022-09-12T00:49:02;99903.51;;;30.75;17.95
51053;BME280;37093;37.716;-122.060;2022-09-12T00:51:33;99904.17;;;31.09;18.11
51053;BME280;37093;37.716;-122.060;2022-09-12T00:54:09;99902.24;;;31.08;18.26
51053;BME280;37093;37.716;-122.060;2022-09-12T00:56:41;99903.72;;;30.93;18.52
51053;BME280;37093;37.716;-122.060;2022-09-12T00:59:14;99906.50;;;30.80;18.70
51053;BME280;37093;37.716;-122.060;2022-09-12T01:01:45;99906.24;;;30.63;19.13
51053;BME280;37093;37.716;-122.060;2022-09-12T01:04:17;99906.63;;;29.81;18.87
51053;BME280;37093;37.716;-122.060;2022-09-12T01:06:48;99909.52;;;30.46;18.60
51053;BME280;37093;37.716;-122.060;2022-09-12T01:09:19;99911.15;;;30.28;18.89
51053;BME280;37093;37.716;-122.060;2022-09-12T01:11:50;99916.26;;;30.17;19.44
51053;BME280;37093;37.716;-122.060;2022-09-12T01:14:20;99917.71;;;29.71;19.76
51053;BME280;37093;37.716;-122.060;2022-09-12T01:16:49;99919.05;;;29.96;20.23
51053;BME280;37093;37.716;-122.060;2022-09-12T01:19:44;99918.29;;;30.05;20.19
51053;BME280;37093;37.716;-122.060;2022-09-12T01:22:32;99916.90;;;29.61;20.51
51053;BME280;37093;37.716;-122.060;2022-09-12T01:25:09;99915.73;;;29.76;20.64
51053;BME280;37093;37.716;-122.060;2022-09-12T01:27:50;99916.46;;;30.02;20.56
51053;BME280;37093;37.716;-122.060;2022-09-12T01:30:43;99918.80;;;29.93;20.74
51053;BME280;37093;37.716;-122.060;2022-09-12T01:34:24;99919.87;;;30.16;21.05
51053;BME280;37093;37.716;-122.060;2022-09-12T01:37:00;99922.21;;;29.90;21.42
51053;BME280;37093;37.716;-122.060;2022-09-12T01:39:42;99923.39;;;30.27;22.04
51053;BME280;37093;37.716;-122.060;2022-09-12T01:42:18;99922.74;;;30.29;22.43
51053;BME280;37093;37.716;-122.060;2022-09-12T01:44:56;99922.76;;;30.14;22.41
51053;BME280;37093;37.716;-122.060;2022-09-12T01:47:32;99918.32;;;29.97;22.27
51053;BME280;37093;37.716;-122.060;2022-09-12T01:50:06;99917.84;;;30.03;22.33
51053;BME280;37093;37.716;-122.060;2022-09-12T01:52:40;99915.55;;;30.09;22.37
51053;BME280;37093;37.716;-122.060;2022-09-12T01:55:14;99916.88;;;29.86;22.41
51053;BME280;37093;37.716;-122.060;2022-09-12T01:57:50;99918.71;;;30.43;22.04
51053;BME280;37093;37.716;-122.060;2022-09-12T02:00:21;99919.15;;;30.11;22.17
51053;BME280;37093;37.716;-122.060;2022-09-12T02:02:52;99922.10;;;30.35;21.95
51053;BME280;37093;37.716;-122.060;2022-09-12T02:05:28;99923.89;;;30.02;22.20
51053;BME280;37093;37.716;-122.060;2022-09-12T02:08:03;99924.87;;;30.09;22.13
51053;BME280;37093;37.716;-122.060;2022-09-12T02:10:39;99927.11;;;29.87;22.17
51053;BME280;37093;37.716;-122.060;2022-09-12T02:13:12;99926.86;;;30.14;22.18
51053;BME280;37093;37.716;-122.060;2022-09-12T02:15:45;99925.81;;;29.89;22.17
51053;BME280;37093;37.716;-122.060;2022-09-12T02:18:17;99924.04;;;30.41;21.95
51053;BME280;37093;37.716;-122.060;2022-09-12T02:20:48;99922.26;;;30.11;21.86
51053;BME280;37093;37.716;-122.060;2022-09-12T02:23:21;99922.26;;;30.15;21.80
51053;BME280;37093;37.716;-122.060;2022-09-12T02:25:53;99924.35;;;29.90;21.85
51053;BME280;37093;37.716;-122.060;2022-09-12T02:28:28;99924.46;;;30.34;21.95
51053;BME280;37093;37.716;-122.060;2022-09-12T02:31:02;99924.46;;;29.98;21.81
51053;BME280;37093;37.716;-122.060;2022-09-12T02:33:42;99926.42;;;30.22;21.89
51053;BME280;37093;37.716;-122.060;2022-09-12T02:36:19;99927.88;;;29.66;21.94
51053;BME280;37093;37.716;-122.060;2022-09-12T02:38:52;99931.25;;;29.82;22.20
51053;BME280;37093;37.716;-122.060;2022-09-12T02:41:22;99930.69;;;29.90;22.52
51053;BME280;37093;37.716;-122.060;2022-09-12T02:43:51;99930.39;;;29.25;22.68
51053;BME280;37093;37.716;-122.060;2022-09-12T02:46:24;99931.78;;;29.72;22.92
51053;BME280;37093;37.716;-122.060;2022-09-12T02:48:54;99936.06;;;29.61;23.17
51053;BME280;37093;37.716;-122.060;2022-09-12T02:51:22;99940.33;;;29.47;23.64
51053;BME280;37093;37.716;-122.060;2022-09-12T02:53:51;99943.38;;;29.36;24.05
51053;BME280;37093;37.716;-122.060;2022-09-12T02:56:25;99941.62;;;29.32;24.21
51053;BME280;37093;37.716;-122.060;2022-09-12T02:58:57;99941.47;;;29.13;25.69
51053;BME280;37093;37.716;-122.060;2022-09-12T03:01:35;99942.60;;;29.24;26.41
51053;BME280;37093;37.716;-122.060;2022-09-12T03:04:30;99944.35;;;29.04;26.80
51053;BME280;37093;37.716;-122.060;2022-09-12T03:07:11;99947.43;;;28.74;27.81
51053;BME280;37093;37.716;-122.060;2022-09-12T03:09:46;99951.36;;;29.21;27.55
51053;BME280;37093;37.716;-122.060;2022-09-12T03:12:29;99949.79;;;28.75;28.43
51053;BME280;37093;37.716;-122.060;2022-09-12T03:15:11;99946.68;;;28.74;27.70
51053;BME280;37093;37.716;-122.060;2022-09-12T03:17:55;99948.37;;;28.73;27.80
51053;BME280;37093;37.716;-122.060;2022-09-12T03:20:40;99949.89;;;28.89;28.21
51053;BME280;37093;37.716;-122.060;2022-09-12T03:23:19;99955.80;;;28.86;28.06
51053;BME280;37093;37.716;-122.060;2022-09-12T03:25:56;99957.74;;;28.78;28.14
51053;BME280;37093;37.716;-122.060;2022-09-12T03:28:27;99966.10;;;28.49;27.98
51053;BME280;37093;37.716;-122.060;2022-09-12T03:30:56;99965.89;;;28.41;28.78
51053;BME280;37093;37.716;-122.060;2022-09-12T03:33:25;99965.60;;;28.46;28.32
51053;BME280;37093;37.716;-122.060;2022-09-12T03:35:54;99969.19;;;28.40;28.35
51053;BME280;37093;37.716;-122.060;2022-09-12T03:38:22;99971.69;;;28.33;28.40
51053;BME280;37093;37.716;-122.060;2022-09-12T03:40:52;99973.62;;;28.23;28.23
51053;BME280;37093;37.716;-122.060;2022-09-12T03:43:20;99975.84;;;28.28;28.38
51053;BME280;37093;37.716;-122.060;2022-09-12T03:45:50;99977.55;;;28.21;28.79
51053;BME280;37093;37.716;-122.060;2022-09-12T03:48:18;99981.95;;;28.44;28.70
51053;BME280;37093;37.716;-122.060;2022-09-12T03:50:47;99985.21;;;28.07;29.15
51053;BME280;37093;37.716;-122.060;2022-09-12T03:53:15;99983.43;;;28.33;29.06
51053;BME280;37093;37.716;-122.060;2022-09-12T03:55:44;99984.89;;;28.27;29.11
51053;BME280;37093;37.716;-122.060;2022-09-12T03:58:12;99987.25;;;28.04;29.06
51053;BME280;37093;37.716;-122.060;2022-09-12T04:00:40;99986.94;;;27.99;28.85
51053;BME280;37093;37.716;-122.060;2022-09-12T04:03:09;99983.66;;;28.27;28.84
51053;BME280;37093;37.716;-122.060;2022-09-12T04:05:37;99986.01;;;27.95;28.82
51053;BME280;37093;37.716;-122.060;2022-09-12T04:08:06;99986.80;;;27.93;29.01
51053;BME280;37093;37.716;-122.060;2022-09-12T04:10:35;99992.03;;;27.86;29.37
51053;BME280;37093;37.716;-122.060;2022-09-12T04:13:03;99994.08;;;27.83;29.50
51053;BME280;37093;37.716;-122.060;2022-09-12T04:15:31;99995.58;;;27.77;29.75
51053;BME280;37093;37.716;-122.060;2022-09-12T04:18:00;99996.15;;;28.04;29.33
51053;BME280;37093;37.716;-122.060;2022-09-12T04:20:28;99997.52;;;27.71;30.21
51053;BME280;37093;37.716;-122.060;2022-09-12T04:22:56;99999.29;;;28.19;31.03
51053;BME280;37093;37.716;-122.060;2022-09-12T04:25:24;99998.13;;;27.55;31.53
51053;BME280;37093;37.716;-122.060;2022-09-12T04:27:52;99996.64;;;27.92;32.05
51053;BME280;37093;37.716;-122.060;2022-09-12T04:30:20;99993.19;;;27.62;32.24
51053;BME280;37093;37.716;-122.060;2022-09-12T04:32:49;99992.34;;;27.59;32.16
51053;BME280;37093;37.716;-122.060;2022-09-12T04:35:17;99989.67;;;27.73;32.25
51053;BME280;37093;37.716;-122.060;2022-09-12T04:37:45;99987.50;;;27.76;32.52
51053;BME280;37093;37.716;-122.060;2022-09-12T04:40:14;99988.96;;;27.48;32.24
51053;BME280;37093;37.716;-122.060;2022-09-12T04:42:43;99987.06;;;27.46;32.28
51053;BME280;37093;37.716;-122.060;2022-09-12T04:45:11;99982.57;;;27.66;32.00
51053;BME280;37093;37.716;-122.060;2022-09-12T04:47:39;99980.75;;;27.67;32.24
51053;BME280;37093;37.716;-122.060;2022-09-12T04:50:08;99974.41;;;27.17;32.19
51053;BME280;37093;37.716;-122.060;2022-09-12T04:52:36;99971.77;;;27.63;32.55
51053;BME280;37093;37.716;-122.060;2022-09-12T04:55:06;99971.55;;;27.53;32.45
51053;BME280;37093;37.716;-122.060;2022-09-12T04:57:35;99970.50;;;27.48;32.63
51053;BME280;37093;37.716;-122.060;2022-09-12T05:00:04;99969.87;;;27.45;32.83
51053;BME280;37093;37.716;-122.060;2022-09-12T05:02:33;99969.30;;;27.38;32.71
51053;BME280;37093;37.716;-122.060;2022-09-12T05:05:02;99972.18;;;27.37;32.64
51053;BME280;37093;37.716;-122.060;2022-09-12T05:07:30;99974.05;;;27.34;32.55
51053;BME280;37093;37.716;-122.060;2022-09-12T05:09:58;99974.33;;;27.38;32.85
51053;BME280;37093;37.716;-122.060;2022-09-12T05:12:27;99976.52;;;27.13;32.67
51053;BME280;37093;37.716;-122.060;2022-09-12T05:14:55;99973.34;;;27.06;32.64
51053;BME280;37093;37.716;-122.060;2022-09-12T05:17:23;99971.91;;;26.98;32.50
51053;BME280;37093;37.716;-122.060;2022-09-12T05:19:52;99971.74;;;26.91;32.18
51053;BME280;37093;37.716;-122.060;2022-09-12T05:22:20;99972.46;;;26.91;32.32
51053;BME280;37093;37.716;-122.060;2022-09-12T05:24:49;99975.10;;;26.88;32.76
51053;BME280;37093;37.716;-122.060;2022-09-12T05:27:17;99973.96;;;26.98;32.98
51053;BME280;37093;37.716;-122.060;2022-09-12T05:29:45;99969.31;;;26.79;33.29
51053;BME280;37093;37.716;-122.060;2022-09-12T05:32:14;99970.77;;;26.75;33.24
51053;BME280;37093;37.716;-122.060;2022-09-12T05:34:41;99970.89;;;26.65;33.72
51053;BME280;37093;37.716;-122.060;2022-09-12T05:37:10;99967.78;;;27.06;34.06
51053;BME280;37093;37.716;-122.060;2022-09-12T05:39:38;99965.37;;;26.52;34.33
51053;BME280;37093;37.716;-122.060;2022-09-12T05:42:07;99965.75;;;26.78;34.59
51053;BME280;37093;37.716;-122.060;2022-09-12T05:44:35;99964.95;;;26.45;34.63
51053;BME280;37093;37.716;-122.060;2022-09-12T05:47:04;99963.88;;;26.75;34.44
51053;BME280;37093;37.716;-122.060;2022-09-12T05:49:32;99963.28;;;26.90;35.07
51053;BME280;37093;37.716;-122.060;2022-09-12T05:52:02;99965.48;;;26.67;34.87
51053;BME280;37093;37.716;-122.060;2022-09-12T05:54:31;99965.82;;;26.59;35.17
51053;BME280;37093;37.716;-122.060;2022-09-12T05:56:58;99966.61;;;26.32;35.26
51053;BME280;37093;37.716;-122.060;2022-09-12T05:59:27;99965.72;;;26.55;35.40
51053;BME280;37093;37.716;-122.060;2022-09-12T06:01:56;99965.35;;;26.57;35.27
51053;BME280;37093;37.716;-122.060;2022-09-12T06:04:24;99963.04;;;26.74;35.29
51053;BME280;37093;37.716;-122.060;2022-09-12T06:06:52;99963.70;;;26.77;35.41
51053;BME280;37093;37.716;-122.060;2022-09-12T06:09:20;99963.83;;;26.48;35.35
51053;BME280;37093;37.716;-122.060;2022-09-12T06:11:49;99965.86;;;26.70;35.39
51053;BME280;37093;37.716;-122.060;2022-09-12T06:14:17;99964.47;;;26.42;35.68
51053;BME280;37093;37.716;-122.060;2022-09-12T06:16:46;99963.93;;;26.66;34.83
51053;BME280;37093;37.716;-122.060;2022-09-12T06:19:16;99962.38;;;26.62;35.79
51053;BME280;37093;37.716;-122.060;2022-09-12T06:21:46;99962.52;;;26.41;35.82
51053;BME280;37093;37.716;-122.060;2022-09-12T06:24:15;99964.25;;;26.56;35.68
51053;BME280;37093;37.716;-122.060;2022-09-12T06:26:44;99968.10;;;26.33;35.98
51053;BME280;37093;37.716;-122.060;2022-09-12T06:29:14;99970.65;;;26.47;35.89
51053;BME280;37093;37.716;-122.060;2022-09-12T06:31:43;99968.30;;;26.51;36.03
51053;BME280;37093;37.716;-122.060;2022-09-12T06:34:13;99968.59;;;26.23;35.87
51053;BME280;37093;37.716;-122.060;2022-09-12T06:36:43;99961.14;;;26.44;35.94
51053;BME280;37093;37.716;-122.060;2022-09-12T06:39:14;99960.78;;;26.19;36.08
51053;BME280;37093;37.716;-122.060;2022-09-12T06:41:42;99963.02;;;26.42;35.99
51053;BME280;37093;37.716;-122.060;2022-09-12T06:44:13;99961.88;;;26.16;35.95
51053;BME280;37093;37.716;-122.060;2022-09-12T06:46:42;99960.93;;;26.13;36.20
51053;BME280;37093;37.716;-122.060;2022-09-12T06:49:11;99955.76;;;26.04;36.02
51053;BME280;37093;37.716;-122.060;2022-09-12T06:51:39;99954.57;;;26.07;35.74
51053;BME280;37093;37.716;-122.060;2022-09-12T06:54:07;99950.44;;;26.19;35.84
51053;BME280;37093;37.716;-122.060;2022-09-12T06:56:36;99948.63;;;26.17;35.60
51053;BME280;37093;37.716;-122.060;2022-09-12T06:59:04;99947.15;;;25.82;35.19
51053;BME280;37093;37.716;-122.060;2022-09-12T07:01:15;99949.00;;;24.92;35.16
51053;BME280;37093;37.716;-122.060;2022-09-12T07:03:48;99951.49;;;25.16;34.15
51053;BME280;37093;37.716;-122.060;2022-09-12T07:06:19;99951.65;;;26.85;32.70
51053;BME280;37093;37.716;-122.060;2022-09-12T07:08:47;99952.54;;;27.19;32.95
51053;BME280;37093;37.716;-122.060;2022-09-12T07:11:17;99954.74;;;26.85;33.75
51053;BME280;37093;37.716;-122.060;2022-09-12T07:13:47;99955.61;;;26.65;34.22
51053;BME280;37093;37.716;-122.060;2022-09-12T07:16:16;99959.27;;;26.18;34.72
51053;BME280;37093;37.716;-122.060;2022-09-12T07:18:48;99960.52;;;26.22;34.80
51053;BME280;37093;37.716;-122.060;2022-09-12T07:21:16;99958.82;;;26.12;34.98
51053;BME280;37093;37.716;-122.060;2022-09-12T07:23:45;99960.54;;;25.99;35.25
51053;BME280;37093;37.716;-122.060;2022-09-12T07:26:14;99960.57;;;26.17;35.63
51053;BME280;37093;37.716;-122.060;2022-09-12T07:28:44;99957.83;;;25.87;35.46
51053;BME280;37093;37.716;-122.060;2022-09-12T07:31:14;99956.58;;;25.84;35.43
51053;BME280;37093;37.716;-122.060;2022-09-12T07:33:44;99957.60;;;25.82;35.53
51053;BME280;37093;37.716;-122.060;2022-09-12T07:36:13;99954.58;;;25.84;35.43
51053;BME280;37093;37.716;-122.060;2022-09-12T07:38:43;99952.46;;;25.86;35.38
51053;BME280;37093;37.716;-122.060;2022-09-12T07:41:12;99947.83;;;25.80;35.45
51053;BME280;37093;37.716;-122.060;2022-09-12T07:43:41;99948.64;;;25.78;35.35
51053;BME280;37093;37.716;-122.060;2022-09-12T07:46:10;99944.27;;;25.96;35.52
51053;BME280;37093;37.716;-122.060;2022-09-12T07:48:39;99939.49;;;25.94;35.69
51053;BME280;37093;37.716;-122.060;2022-09-12T07:51:10;99935.12;;;25.62;35.92
51053;BME280;37093;37.716;-122.060;2022-09-12T07:53:40;99933.74;;;25.79;35.98
51053;BME280;37093;37.716;-122.060;2022-09-12T07:56:10;99930.24;;;25.53;36.32
51053;BME280;37093;37.716;-122.060;2022-09-12T07:58:39;99928.72;;;25.52;36.37
51053;BME280;37093;37.716;-122.060;2022-09-12T08:01:09;99926.69;;;25.70;36.51
51053;BME280;37093;37.716;-122.060;2022-09-12T08:03:39;99921.50;;;25.68;36.33
51053;BME280;37093;37.716;-122.060;2022-09-12T08:06:08;99918.69;;;25.66;36.39
51053;BME280;37093;37.716;-122.060;2022-09-12T08:08:38;99918.60;;;25.43;36.45
51053;BME280;37093;37.716;-122.060;2022-09-12T08:11:09;99917.49;;;25.39;36.53
51053;BME280;37093;37.716;-122.060;2022-09-12T08:13:39;99921.41;;;25.88;36.41
51053;BME280;37093;37.716;-122.060;2022-09-12T08:16:11;99918.77;;;25.58;36.49
51053;BME280;37093;37.716;-122.060;2022-09-12T08:18:40;99913.49;;;25.37;36.57
51053;BME280;37093;37.716;-122.060;2022-09-12T08:21:12;99908.06;;;25.35;36.50
51053;BME280;37093;37.716;-122.060;2022-09-12T08:23:42;99906.97;;;25.58;36.78
51053;BME280;37093;37.716;-122.060;2022-09-12T08:26:14;99903.30;;;25.82;37.32
51053;BME280;37093;37.716;-122.060;2022-09-12T08:28:44;99905.37;;;25.35;37.47
51053;BME280;37093;37.716;-122.060;2022-09-12T08:31:15;99906.49;;;25.56;37.86
51053;BME280;37093;37.716;-122.060;2022-09-12T08:33:44;99907.40;;;25.59;37.64
51053;BME280;37093;37.716;-122.060;2022-09-12T08:36:14;99908.54;;;25.56;37.75
51053;BME280;37093;37.716;-122.060;2022-09-12T08:38:45;99910.06;;;25.58;37.92
51053;BME280;37093;37.716;-122.060;2022-09-12T08:41:24;99909.94;;;25.59;37.52
51053;BME280;37093;37.716;-122.060;2022-09-12T08:44:03;99907.28;;;25.55;37.86
51053;BME280;37093;37.716;-122.060;2022-09-12T08:46:39;99902.35;;;25.82;37.97
51053;BME280;37093;37.716;-122.060;2022-09-12T08:49:14;99903.39;;;25.46;37.52
51053;BME280;37093;37.716;-122.060;2022-09-12T08:51:46;99901.37;;;25.48;38.04
51053;BME280;37093;37.716;-122.060;2022-09-12T08:54:20;99896.37;;;25.57;38.32
51053;BME280;37093;37.716;-122.060;2022-09-12T08:56:50;99890.60;;;25.63;38.18
51053;BME280;37093;37.716;-122.060;2022-09-12T08:59:22;99890.81;;;25.33;38.26
51053;BME280;37093;37.716;-122.060;2022-09-12T09:01:56;99889.14;;;25.63;38.13
51053;BME280;37093;37.716;-122.060;2022-09-12T09:04:37;99891.39;;;25.32;38.05
51053;BME280;37093;37.716;-122.060;2022-09-12T09:07:22;99887.02;;;25.39;38.12
51053;BME280;37093;37.716;-122.060;2022-09-12T09:10:02;99883.35;;;25.16;38.23
51053;BME280;37093;37.716;-122.060;2022-09-12T09:12:38;99880.59;;;25.41;38.74
51053;BME280;37093;37.716;-122.060;2022-09-12T09:15:28;99880.55;;;25.14;39.23
51053;BME280;37093;37.716;-122.060;2022-09-12T09:18:03;99882.02;;;25.01;39.13
51053;BME280;37093;37.716;-122.060;2022-09-12T09:20:39;99884.43;;;25.26;37.72
51053;BME280;37093;37.716;-122.060;2022-09-12T09:23:13;99885.08;;;25.08;38.09
51053;BME280;37093;37.716;-122.060;2022-09-12T09:25:50;99883.37;;;25.09;37.97
51053;BME280;37093;37.716;-122.060;2022-09-12T09:28:27;99878.14;;;24.91;38.76
51053;BME280;37093;37.716;-122.060;2022-09-12T09:30:57;99874.19;;;25.17;38.59
51053;BME280;37093;37.716;-122.060;2022-09-12T09:33:33;99871.73;;;24.92;38.16
51053;BME280;37093;37.716;-122.060;2022-09-12T09:36:09;99877.90;;;25.21;38.18
51053;BME280;37093;37.716;-122.060;2022-09-12T09:38:48;99876.55;;;24.93;38.70
51053;BME280;37093;37.716;-122.060;2022-09-12T09:41:31;99874.41;;;25.16;38.08
51053;BME280;37093;37.716;-122.060;2022-09-12T09:44:02;99871.97;;;25.20;37.95
51053;BME280;37093;37.716;-122.060;2022-09-12T09:46:31;99871.39;;;24.98;37.78
51053;BME280;37093;37.716;-122.060;2022-09-12T09:49:01;99868.33;;;25.24;37.82
51053;BME280;37093;37.716;-122.060;2022-09-12T09:51:35;99864.47;;;25.01;37.78
51053;BME280;37093;37.716;-122.060;2022-09-12T09:54:14;99858.77;;;25.01;37.55
51053;BME280;37093;37.716;-122.060;2022-09-12T09:56:44;99858.22;;;25.32;37.84
51053;BME280;37093;37.716;-122.060;2022-09-12T09:59:16;99858.68;;;25.27;37.73
51053;BME280;37093;37.716;-122.060;2022-09-12T10:01:47;99858.99;;;25.24;37.39
51053;BME280;37093;37.716;-122.060;2022-09-12T10:04:19;99862.74;;;25.22;37.62
51053;BME280;37093;37.716;-122.060;2022-09-12T10:06:50;99861.80;;;25.25;37.30
51053;BME280;37093;37.716;-122.060;2022-09-12T10:09:22;99860.91;;;24.96;37.69
51053;BME280;37093;37.716;-122.060;2022-09-12T10:11:52;99861.54;;;25.23;37.77
51053;BME280;37093;37.716;-122.060;2022-09-12T10:14:36;99861.54;;;24.91;37.51
51053;BME280;37093;37.716;-122.060;2022-09-12T10:17:24;99860.95;;;25.22;37.77
51053;BME280;37093;37.716;-122.060;2022-09-12T10:19:53;99856.29;;;24.91;37.73
51053;BME280;37093;37.716;-122.060;2022-09-12T10:22:23;99855.44;;;25.15;37.59
51053;BME280;37093;37.716;-122.060;2022-09-12T10:24:55;99856.09;;;25.13;37.50
51053;BME280;37093;37.716;-122.060;2022-09-12T10:27:27;99853.98;;;25.10;37.48
51053;BME280;37093;37.716;-122.060;2022-09-12T10:30:02;99853.37;;;25.05;37.51
51053;BME280;37093;37.716;-122.060;2022-09-12T10:32:36;99850.54;;;25.06;37.58
51053;BME280;37093;37.716;-122.060;2022-09-12T10:35:15;99850.02;;;24.76;37.46
51053;BME280;37093;37.716;-122.060;2022-09-12T10:37:53;99846.73;;;25.01;37.56
51053;BME280;37093;37.716;-122.060;2022-09-12T10:40:25;99847.06;;;25.01;37.60
51053;BME280;37093;37.716;-122.060;2022-09-12T10:42:55;99848.53;;;24.80;37.36
51053;BME280;37093;37.716;-122.060;2022-09-12T10:45:26;99849.73;;;25.05;37.88
51053;BME280;37093;37.716;-122.060;2022-09-12T10:47:56;99854.35;;;25.06;37.53
51053;BME280;37093;37.716;-122.060;2022-09-12T10:50:29;99859.27;;;24.75;37.71
51053;BME280;37093;37.716;-122.060;2022-09-12T10:53:15;99861.27;;;25.03;37.64
51053;BME280;37093;37.716;-122.060;2022-09-12T10:55:57;99864.83;;;24.99;37.80
51053;BME280;37093;37.716;-122.060;2022-09-12T10:58:45;99865.82;;;24.97;37.88
51053;BME280;37093;37.716;-122.060;2022-09-12T11:01:28;99861.40;;;24.66;37.92
51053;BME280;37093;37.716;-122.060;2022-09-12T11:04:17;99861.37;;;24.94;37.65
51053;BME280;37093;37.716;-122.060;2022-09-12T11:06:55;99859.49;;;24.84;37.68
51053;BME280;37093;37.716;-122.060;2022-09-12T11:09:30;99856.17;;;24.85;37.71
51053;BME280;37093;37.716;-122.060;2022-09-12T11:12:10;99853.95;;;24.79;37.84
51053;BME280;37093;37.716;-122.060;2022-09-12T11:14:51;99855.09;;;24.66;37.98
51053;BME280;37093;37.716;-122.060;2022-09-12T11:17:29;99853.21;;;24.67;38.21
51053;BME280;37093;37.716;-122.060;2022-09-12T11:20:44;99850.84;;;24.68;38.02
51053;BME280;37093;37.716;-122.060;2022-09-12T11:23:36;99845.06;;;24.67;38.10
51053;BME280;37093;37.716;-122.060;2022-09-12T11:26:21;99843.93;;;24.40;38.11
51053;BME280;37093;37.716;-122.060;2022-09-12T11:28:59;99845.74;;;24.69;38.23
51053;BME280;37093;37.716;-122.060;2022-09-12T11:31:43;99847.61;;;24.65;38.25
51053;BME280;37093;37.716;-122.060;2022-09-12T11:34:21;99842.61;;;24.65;38.02
51053;BME280;37093;37.716;-122.060;2022-09-12T11:37:05;99843.28;;;24.63;37.75
51053;BME280;37093;37.716;-122.060;2022-09-12T11:39:38;99841.39;;;24.59;38.09
51053;BME280;37093;37.716;-122.060;2022-09-12T11:42:14;99840.11;;;24.38;38.43
51053;BME280;37093;37.716;-122.060;2022-09-12T11:44:46;99841.22;;;24.42;38.48
51053;BME280;37093;37.716;-122.060;2022-09-12T11:47:18;99844.37;;;24.41;38.23
51053;BME280;37093;37.716;-122.060;2022-09-12T11:49:49;99846.29;;;24.38;38.46
51053;BME280;37093;37.716;-122.060;2022-09-12T11:52:21;99841.09;;;24.39;38.34
51053;BME280;37093;37.716;-122.060;2022-09-12T11:54:58;99845.93;;;24.57;38.48
51053;BME280;37093;37.716;-122.060;2022-09-12T11:57:32;99841.86;;;24.35;38.12
51053;BME280;37093;37.716;-122.060;2022-09-12T12:00:06;99837.87;;;24.31;38.49
51053;BME280;37093;37.716;-122.060;2022-09-12T12:02:50;99837.31;;;24.57;38.50
